createdAt,value
2023-02-05T00:02:03.811Z,0.30
2023-02-05T00:04:31.058Z,0.30
2023-02-05T00:06:58.233Z,0.20
2023-02-05T00:09:25.584Z,0.30
2023-02-05T00:11:52.846Z,0.20
2023-02-05T00:14:20.477Z,0.20
2023-02-05T00:16:48.182Z,0.10
2023-02-05T00:19:15.509Z,0.10
2023-02-05T00:21:42.727Z,0.10
2023-02-05T00:24:10.584Z,0.00
2023-02-05T00:26:38.259Z,0.00
2023-02-05T00:29:05.519Z,0.00
2023-02-05T00:31:32.925Z,-0.10
2023-02-05T00:34:00.588Z,-0.10
2023-02-05T00:36:27.878Z,-0.10
2023-02-05T00:38:55.219Z,-0.10
2023-02-05T00:41:22.461Z,-0.20
2023-02-05T00:43:49.873Z,-0.20
2023-02-05T00:46:17.501Z,-0.30
2023-02-05T00:48:45.221Z,-0.30
2023-02-05T00:51:12.852Z,-0.30
2023-02-05T00:53:40.581Z,-0.30
2023-02-05T00:56:08.346Z,-0.30
2023-02-05T00:58:35.964Z,-0.40
2023-02-05T01:01:03.658Z,-0.40
2023-02-05T01:03:33.118Z,-0.40
2023-02-05T01:06:03.140Z,-0.40
2023-02-05T01:08:30.462Z,-0.40
2023-02-05T01:10:58.105Z,-0.40
2023-02-05T01:13:25.797Z,-0.50
2023-02-05T01:15:53.215Z,-0.50
2023-02-05T01:18:20.678Z,-0.40
2023-02-05T01:20:48.282Z,-0.50
2023-02-05T01:23:15.693Z,-0.50
2023-02-05T01:25:43.243Z,-0.50
2023-02-05T01:28:10.551Z,-0.50
2023-02-05T01:30:38.029Z,-0.50
2023-02-05T01:33:05.548Z,-0.60
2023-02-05T01:35:33.395Z,-0.60
2023-02-05T01:38:00.878Z,-0.50
2023-02-05T01:40:28.636Z,-0.60
2023-02-05T01:42:56.026Z,-0.60
2023-02-05T01:45:23.271Z,-0.70
2023-02-05T01:47:55.771Z,-0.70
2023-02-05T01:51:04.272Z,-0.70
2023-02-05T01:53:34.726Z,-0.80
2023-02-05T01:56:10.071Z,-0.70
2023-02-05T01:59:03.178Z,-0.80
2023-02-05T02:01:32.069Z,-0.80
2023-02-05T02:04:01.399Z,-0.80
2023-02-05T02:06:28.962Z,-0.70
2023-02-05T02:08:57.243Z,-0.90
2023-02-05T02:11:29.074Z,-0.90
2023-02-05T02:13:59.443Z,-0.80
2023-02-05T02:16:28.916Z,-1.00
2023-02-05T02:18:56.920Z,-1.00
2023-02-05T02:21:59.539Z,-1.00
2023-02-05T02:25:07.624Z,-1.00
2023-02-05T02:28:07.404Z,-1.00
2023-02-05T02:30:45.894Z,-1.10
2023-02-05T02:33:23.691Z,-1.00
2023-02-05T02:35:57.214Z,-1.10
2023-02-05T02:38:29.935Z,-1.20
2023-02-05T02:41:12.357Z,-1.20
2023-02-05T02:43:53.782Z,-1.20
2023-02-05T02:46:55.439Z,-1.20
2023-02-05T02:49:30.627Z,-1.30
2023-02-05T02:52:01.827Z,-1.10
2023-02-05T02:54:29.274Z,-1.30
2023-02-05T02:56:58.501Z,-1.30
2023-02-05T02:59:27.962Z,-1.30
2023-02-05T03:01:58.111Z,-1.30
2023-02-05T03:04:32.075Z,-1.30
2023-02-05T03:07:29.478Z,-1.30
2023-02-05T03:10:08.948Z,-1.30
2023-02-05T03:12:36.520Z,-1.30
2023-02-05T03:15:04.164Z,-1.30
2023-02-05T03:17:31.484Z,-1.30
2023-02-05T03:20:35.975Z,-1.30
2023-02-05T03:23:03.611Z,-1.30
2023-02-05T03:25:30.996Z,-1.20
2023-02-05T03:28:00.487Z,-1.10
2023-02-05T03:30:48.051Z,-1.10
2023-02-05T03:33:32.614Z,-1.10
2023-02-05T03:36:16.431Z,-1.00
2023-02-05T03:39:12.342Z,-1.00
2023-02-05T03:42:07.401Z,-1.00
2023-02-05T03:44:57.197Z,-0.90
2023-02-05T03:47:49.666Z,-0.90
2023-02-05T03:50:29.524Z,-0.90
2023-02-05T03:53:11.873Z,-0.90
2023-02-05T03:55:45.713Z,-0.90
2023-02-05T03:58:25.065Z,-1.00
2023-02-05T04:00:52.695Z,-1.00
2023-02-05T04:03:21.321Z,-1.00
2023-02-05T04:05:48.824Z,-1.00
2023-02-05T04:08:16.782Z,-1.10
2023-02-05T04:10:48.932Z,-1.10
2023-02-05T04:13:16.350Z,-1.10
2023-02-05T04:15:44.551Z,-1.10
2023-02-05T04:18:14.658Z,-1.10
2023-02-05T04:20:44.294Z,-1.20
2023-02-05T04:23:13.144Z,-1.20
2023-02-05T04:25:41.500Z,-1.20
2023-02-05T04:28:12.460Z,-1.30
2023-02-05T04:30:40.312Z,-1.20
2023-02-05T04:33:09.783Z,-1.20
2023-02-05T04:35:38.679Z,-1.30
2023-02-05T04:38:06.419Z,-1.30
2023-02-05T04:40:34.008Z,-1.30
2023-02-05T04:43:01.426Z,-1.30
2023-02-05T04:45:31.238Z,-1.40
2023-02-05T04:48:00.132Z,-1.40
2023-02-05T04:50:27.752Z,-1.40
2023-02-05T04:52:54.990Z,-1.40
2023-02-05T04:55:22.306Z,-1.40
2023-02-05T04:57:52.341Z,-1.40
2023-02-05T05:00:20.525Z,-1.40
2023-02-05T05:02:48.001Z,-1.40
2023-02-05T05:05:15.406Z,-1.40
2023-02-05T05:07:43.158Z,-1.40
2023-02-05T05:10:11.652Z,-1.40
2023-02-05T05:12:39.084Z,-1.40
2023-02-05T05:15:06.844Z,-1.40
2023-02-05T05:17:34.795Z,-1.40
2023-02-05T05:20:02.413Z,-1.40
2023-02-05T05:22:29.814Z,-1.40
2023-02-05T05:24:57.462Z,-1.40
2023-02-05T05:27:24.982Z,-1.30
2023-02-05T05:29:52.333Z,-1.50
2023-02-05T05:32:19.815Z,-1.40
2023-02-05T05:34:47.111Z,-1.50
2023-02-05T05:37:14.538Z,-1.40
2023-02-05T05:40:00.221Z,-1.50
2023-02-05T05:42:46.269Z,-1.50
2023-02-05T05:45:13.849Z,-1.50
2023-02-05T05:47:41.321Z,-1.50
2023-02-05T05:50:08.860Z,-1.50
2023-02-05T05:52:36.113Z,-1.50
2023-02-05T05:55:03.473Z,-1.50
2023-02-05T05:57:30.881Z,-1.50
2023-02-05T05:59:58.133Z,-1.50
2023-02-05T06:02:25.725Z,-1.60
2023-02-05T06:04:53.102Z,-1.60
2023-02-05T06:07:20.533Z,-1.60
2023-02-05T06:09:47.774Z,-1.60
2023-02-05T06:12:14.963Z,-1.60
2023-02-05T06:14:42.271Z,-1.60
2023-02-05T06:17:09.677Z,-1.70
2023-02-05T06:19:37.378Z,-1.70
2023-02-05T06:22:04.839Z,-1.70
2023-02-05T06:24:32.035Z,-1.60
2023-02-05T06:26:59.415Z,-1.60
2023-02-05T06:29:26.760Z,-1.70
2023-02-05T06:31:53.975Z,-1.70
2023-02-05T06:34:21.699Z,-1.60
2023-02-05T06:36:49.156Z,-1.60
2023-02-05T06:39:16.401Z,-1.60
2023-02-05T06:41:43.732Z,-1.60
2023-02-05T06:44:11.067Z,-1.50
2023-02-05T06:46:38.714Z,-1.50
2023-02-05T06:49:06.318Z,-1.50
2023-02-05T06:51:33.866Z,-1.50
2023-02-05T06:54:01.183Z,-1.50
2023-02-05T06:56:28.490Z,-1.40
2023-02-05T06:58:55.778Z,-1.40
2023-02-05T07:01:23.589Z,-1.40
2023-02-05T07:03:54.464Z,-1.40
2023-02-05T07:06:23.492Z,-1.40
2023-02-05T07:08:52.668Z,-1.40
2023-02-05T07:11:20.492Z,-1.30
2023-02-05T07:13:48.033Z,-1.30
2023-02-05T07:16:15.880Z,-1.30
2023-02-05T07:18:43.362Z,-1.20
2023-02-05T07:21:17.253Z,-1.20
2023-02-05T07:23:45.124Z,-1.10
2023-02-05T07:26:15.703Z,-1.00
2023-02-05T07:28:43.591Z,-0.90
2023-02-05T07:31:15.295Z,-0.70
2023-02-05T07:33:44.179Z,-0.50
2023-02-05T07:36:16.145Z,-0.50
2023-02-05T07:38:45.411Z,-0.30
2023-02-05T07:41:15.153Z,-0.20
2023-02-05T07:43:42.935Z,0.00
2023-02-05T07:46:13.133Z,0.10
2023-02-05T07:48:40.751Z,0.20
2023-02-05T07:51:08.673Z,0.40
2023-02-05T07:53:36.307Z,0.60
2023-02-05T07:56:04.672Z,0.70
2023-02-05T07:58:32.249Z,1.00
2023-02-05T08:01:01.961Z,1.20
2023-02-05T08:03:29.794Z,1.50
2023-02-05T08:05:58.077Z,1.90
2023-02-05T08:08:25.727Z,2.10
2023-02-05T08:11:02.745Z,2.50
2023-02-05T08:13:30.518Z,2.80
2023-02-05T08:15:58.636Z,3.20
2023-02-05T08:18:26.396Z,3.50
2023-02-05T08:20:54.809Z,3.90
2023-02-05T08:23:22.800Z,4.30
2023-02-05T08:25:54.684Z,4.70
2023-02-05T08:28:23.174Z,5.10
2023-02-05T08:30:50.918Z,5.50
2023-02-05T08:33:18.580Z,5.80
2023-02-05T08:35:46.344Z,6.20
2023-02-05T08:38:13.983Z,6.50
2023-02-05T08:40:41.409Z,6.80
2023-02-05T08:43:08.892Z,7.00
2023-02-05T08:45:37.035Z,7.10
2023-02-05T08:48:04.913Z,7.20
2023-02-05T08:50:32.474Z,7.10
2023-02-05T08:53:00.041Z,7.00
2023-02-05T08:55:27.627Z,6.90
2023-02-05T08:57:55.557Z,6.70
2023-02-05T09:00:23.373Z,6.50
2023-02-05T09:02:50.757Z,6.40
2023-02-05T09:05:18.101Z,6.30
2023-02-05T09:07:45.722Z,6.10
2023-02-05T09:10:13.456Z,6.00
2023-02-05T09:12:40.969Z,5.90
2023-02-05T09:15:09.456Z,5.80
2023-02-05T09:17:36.833Z,5.70
2023-02-05T09:20:04.813Z,5.60
2023-02-05T09:22:32.359Z,5.40
2023-02-05T09:24:59.752Z,5.30
2023-02-05T09:27:27.126Z,5.20
2023-02-05T09:29:54.419Z,5.20
2023-02-05T09:32:21.834Z,5.20
2023-02-05T09:34:49.402Z,5.20
2023-02-05T09:37:17.587Z,5.20
2023-02-05T09:40:18.919Z,5.30
2023-02-05T09:42:32.357Z,5.40
2023-02-05T09:45:05.277Z,5.50
2023-02-05T09:48:16.839Z,5.60
2023-02-05T09:50:44.626Z,5.70
2023-02-05T09:53:19.262Z,5.70
2023-02-05T09:55:48.156Z,5.70
2023-02-05T09:58:26.490Z,5.70
2023-02-05T10:01:01.044Z,5.60
2023-02-05T10:03:32.243Z,5.70
2023-02-05T10:06:22.070Z,5.60
2023-02-05T10:08:58.486Z,5.50
2023-02-05T10:11:36.648Z,5.50
2023-02-05T10:14:10.252Z,5.30
2023-02-05T10:16:54.060Z,5.20
2023-02-05T10:19:41.702Z,5.10
2023-02-05T10:22:28.444Z,5.10
2023-02-05T10:25:23.267Z,5.00
2023-02-05T10:28:12.166Z,5.00
2023-02-05T10:31:02.930Z,4.90
2023-02-05T10:33:39.219Z,4.90
2023-02-05T10:36:09.496Z,4.90
2023-02-05T10:38:43.234Z,5.00
2023-02-05T10:41:20.470Z,5.00
2023-02-05T10:43:53.321Z,5.00
2023-02-05T10:46:20.714Z,5.00
2023-02-05T10:48:58.738Z,5.00
2023-02-05T10:51:44.036Z,5.00
2023-02-05T10:54:29.240Z,5.00
2023-02-05T10:56:58.602Z,5.00
2023-02-05T10:59:29.110Z,5.00
2023-02-05T11:02:01.007Z,5.00
2023-02-05T11:04:45.209Z,5.00
2023-02-05T11:07:24.641Z,5.00
2023-02-05T11:09:51.925Z,4.90
2023-02-05T11:12:31.475Z,4.90
2023-02-05T11:15:01.805Z,4.90
2023-02-05T11:17:36.114Z,4.80
2023-02-05T11:20:27.232Z,4.80
2023-02-05T11:23:21.787Z,4.70
2023-02-05T11:25:51.098Z,4.70
2023-02-05T11:28:30.284Z,4.70
2023-02-05T11:31:15.656Z,4.70
2023-02-05T11:33:43.115Z,4.70
2023-02-05T11:36:22.361Z,4.70
2023-02-05T11:38:53.634Z,4.70
2023-02-05T11:41:30.930Z,4.70
2023-02-05T11:44:00.786Z,4.70
2023-02-05T11:46:34.430Z,4.70
2023-02-05T11:49:03.152Z,4.70
2023-02-05T11:51:36.514Z,4.70
2023-02-05T11:54:36.613Z,4.80
2023-02-05T11:57:05.194Z,4.80
2023-02-05T11:59:34.326Z,4.80
2023-02-05T12:02:30.596Z,4.80
2023-02-05T12:05:04.580Z,4.80
2023-02-05T12:07:41.359Z,4.90
2023-02-05T12:10:51.884Z,4.90
2023-02-05T12:13:39.808Z,4.90
2023-02-05T12:16:15.152Z,5.00
2023-02-05T12:19:14.277Z,4.90
2023-02-05T12:21:47.894Z,4.80
2023-02-05T12:24:39.535Z,4.80
2023-02-05T12:27:27.827Z,4.80
2023-02-05T12:30:30.782Z,4.80
2023-02-05T12:33:28.559Z,4.80
2023-02-05T12:36:28.980Z,4.80
2023-02-05T12:39:20.643Z,4.80
2023-02-05T12:42:13.910Z,4.80
2023-02-05T12:45:03.562Z,4.90
2023-02-05T12:47:49.419Z,4.80
2023-02-05T12:50:38.938Z,4.90
2023-02-05T12:53:22.171Z,4.90
2023-02-05T12:56:01.564Z,4.90
2023-02-05T12:58:43.015Z,4.90
2023-02-05T13:01:22.691Z,4.90
2023-02-05T13:04:01.523Z,4.90
2023-02-05T13:06:43.258Z,4.90
2023-02-05T13:09:20.057Z,4.90
2023-02-05T13:12:02.080Z,4.90
2023-02-05T13:14:42.633Z,4.90
2023-02-05T13:17:18.102Z,4.90
2023-02-05T13:19:54.285Z,4.90
2023-02-05T13:22:48.895Z,4.90
2023-02-05T13:25:53.178Z,4.90
2023-02-05T13:28:47.488Z,4.80
2023-02-05T13:31:24.681Z,4.80
2023-02-05T13:33:54.909Z,4.80
2023-02-05T13:36:25.127Z,4.80
2023-02-05T13:39:33.858Z,4.80
2023-02-05T13:42:13.022Z,4.90
2023-02-05T13:45:10.992Z,4.90
2023-02-05T13:48:02.676Z,4.90
2023-02-05T13:50:33.268Z,4.90
2023-02-05T13:53:22.752Z,5.00
2023-02-05T13:56:44.533Z,5.00
2023-02-05T13:59:18.741Z,5.00
2023-02-05T14:02:00.274Z,5.00
2023-02-05T14:04:39.364Z,5.00
2023-02-05T14:07:12.902Z,5.10
2023-02-05T14:09:52.158Z,5.10
2023-02-05T14:12:31.950Z,5.10
2023-02-05T14:15:17.571Z,5.10
2023-02-05T14:17:47.393Z,5.10
2023-02-05T14:20:26.750Z,5.10
2023-02-05T14:23:01.046Z,5.10
2023-02-05T14:25:43.249Z,5.00
2023-02-05T14:28:16.485Z,5.00
2023-02-05T14:30:48.413Z,4.90
2023-02-05T14:33:35.482Z,4.90
2023-02-05T14:36:22.034Z,4.90
2023-02-05T14:39:00.798Z,4.90
2023-02-05T14:41:39.620Z,4.80
2023-02-05T14:44:20.706Z,4.90
2023-02-05T14:47:03.990Z,4.80
2023-02-05T14:49:34.316Z,4.80
2023-02-05T14:52:21.739Z,4.80
2023-02-05T14:55:01.990Z,4.80
2023-02-05T14:57:41.582Z,4.80
2023-02-05T15:00:21.300Z,4.80
2023-02-05T15:03:13.637Z,4.80
2023-02-05T15:05:44.960Z,4.80
2023-02-05T15:08:28.282Z,4.80
2023-02-05T15:11:15.086Z,4.80
2023-02-05T15:14:02.978Z,4.80
2023-02-05T15:16:30.463Z,4.80
2023-02-05T15:19:04.802Z,4.80
2023-02-05T15:21:40.637Z,4.80
2023-02-05T15:24:22.652Z,4.70
2023-02-05T15:27:15.400Z,4.70
2023-02-05T15:29:47.220Z,4.70
2023-02-05T15:32:36.084Z,4.70
2023-02-05T15:35:14.192Z,4.70
2023-02-05T15:37:52.871Z,4.60
2023-02-05T15:40:31.115Z,4.70
2023-02-05T15:43:17.389Z,4.70
2023-02-05T15:45:45.639Z,4.70
2023-02-05T15:48:19.297Z,4.70
2023-02-05T15:51:11.074Z,4.60
2023-02-05T15:53:49.625Z,4.60
2023-02-05T15:56:20.257Z,4.60
2023-02-05T15:58:52.410Z,4.60
2023-02-05T16:01:29.515Z,4.50
2023-02-05T16:03:57.108Z,4.50
2023-02-05T16:06:26.858Z,4.50
2023-02-05T16:08:54.786Z,4.40
2023-02-05T16:11:27.601Z,4.40
2023-02-05T16:14:16.274Z,4.30
2023-02-05T16:16:56.829Z,4.30
2023-02-05T16:19:33.129Z,4.20
2023-02-05T16:22:31.122Z,4.10
2023-02-05T16:25:01.882Z,4.00
2023-02-05T16:27:36.742Z,4.00
2023-02-05T16:30:15.189Z,3.90
2023-02-05T16:32:42.815Z,3.80
2023-02-05T16:35:23.991Z,3.70
2023-02-05T16:37:51.885Z,3.60
2023-02-05T16:40:40.671Z,3.60
2023-02-05T16:43:31.299Z,3.50
2023-02-05T16:46:08.330Z,3.40
2023-02-05T16:48:46.749Z,3.30
2023-02-05T16:51:32.474Z,3.30
2023-02-05T16:54:02.150Z,3.20
2023-02-05T16:56:37.466Z,3.10
2023-02-05T16:59:06.333Z,3.10
2023-02-05T17:01:40.010Z,3.00
2023-02-05T17:04:07.763Z,3.00
2023-02-05T17:06:37.534Z,2.90
2023-02-05T17:09:05.732Z,2.90
2023-02-05T17:11:39.903Z,2.80
2023-02-05T17:14:26.905Z,2.80
2023-02-05T17:16:57.712Z,2.70
2023-02-05T17:19:30.549Z,2.70
2023-02-05T17:22:16.213Z,2.60
2023-02-05T17:24:46.101Z,2.60
2023-02-05T17:27:21.847Z,2.50
2023-02-05T17:29:49.423Z,2.50
2023-02-05T17:32:19.182Z,2.50
2023-02-05T17:34:47.629Z,2.40
2023-02-05T17:37:15.643Z,2.40
2023-02-05T17:39:43.078Z,2.40
2023-02-05T17:42:25.082Z,2.40
2023-02-05T17:44:53.601Z,2.30
2023-02-05T17:47:20.961Z,2.30
2023-02-05T17:49:48.423Z,2.20
2023-02-05T17:52:15.916Z,2.20
2023-02-05T17:54:45.218Z,2.20
2023-02-05T17:57:18.031Z,2.10
2023-02-05T17:59:46.411Z,2.10
2023-02-05T18:02:16.231Z,2.10
2023-02-05T18:04:44.870Z,2.00
2023-02-05T18:07:34.907Z,2.00
2023-02-05T18:10:03.348Z,2.00
2023-02-05T18:12:31.349Z,1.90
2023-02-05T18:14:58.880Z,1.80
2023-02-05T18:17:26.324Z,1.80
2023-02-05T18:19:53.708Z,1.70
2023-02-05T18:22:21.574Z,1.70
2023-02-05T18:24:48.775Z,1.60
2023-02-05T18:27:16.440Z,1.50
2023-02-05T18:29:43.988Z,1.50
2023-02-05T18:32:11.746Z,1.50
2023-02-05T18:34:39.943Z,1.40
2023-02-05T18:37:07.138Z,1.30
2023-02-05T18:39:34.488Z,1.30
2023-02-05T18:42:02.202Z,1.30
2023-02-05T18:44:29.800Z,1.10
2023-02-05T18:46:57.225Z,1.10
2023-02-05T18:49:24.437Z,1.20
2023-02-05T18:51:52.233Z,1.00
2023-02-05T18:54:19.594Z,1.10
2023-02-05T18:56:47.963Z,1.10
2023-02-05T18:59:17.963Z,1.00
2023-02-05T19:01:45.369Z,1.00
2023-02-05T19:04:14.588Z,1.00
2023-02-05T19:06:43.593Z,0.90
2023-02-05T19:09:11.885Z,0.90
2023-02-05T19:11:41.451Z,0.90
2023-02-05T19:14:12.218Z,0.90
2023-02-05T19:16:40.969Z,0.90
2023-02-05T19:19:10.047Z,0.90
2023-02-05T19:21:37.753Z,0.90
2023-02-05T19:24:07.146Z,0.80
2023-02-05T19:26:36.478Z,0.80
2023-02-05T19:29:08.456Z,0.80
2023-02-05T19:31:37.470Z,0.80
2023-02-05T19:34:05.612Z,0.80
2023-02-05T19:36:33.420Z,0.80
2023-02-05T19:39:04.088Z,0.80
2023-02-05T19:41:33.495Z,0.80
2023-02-05T19:44:04.082Z,0.80
2023-02-05T19:46:34.974Z,0.90
2023-02-05T19:49:05.595Z,0.90
2023-02-05T19:51:32.825Z,0.90
2023-02-05T19:54:02.957Z,0.90
2023-02-05T19:56:32.285Z,0.90
2023-02-05T19:58:59.744Z,1.00
2023-02-05T20:01:30.176Z,1.00
2023-02-05T20:04:07.428Z,1.10
2023-02-05T20:06:35.722Z,1.10
2023-02-05T20:09:10.624Z,1.10
2023-02-05T20:11:43.270Z,1.20
2023-02-05T20:14:11.362Z,1.20
2023-02-05T20:16:42.394Z,1.30
2023-02-05T20:19:12.611Z,1.30
2023-02-05T20:21:40.796Z,1.30
2023-02-05T20:24:09.412Z,1.30
2023-02-05T20:26:37.979Z,1.40
2023-02-05T20:29:24.330Z,1.40
2023-02-05T20:31:53.355Z,1.40
2023-02-05T20:34:25.503Z,1.50
2023-02-05T20:36:55.562Z,1.50
2023-02-05T20:39:24.784Z,1.50
2023-02-05T20:41:52.686Z,1.50
2023-02-05T20:44:20.354Z,1.60
2023-02-05T20:46:48.115Z,1.60
2023-02-05T20:49:15.835Z,1.60
2023-02-05T20:51:43.888Z,1.60
2023-02-05T20:54:11.674Z,1.60
2023-02-05T20:56:39.273Z,1.70
2023-02-05T20:59:09.148Z,1.70
2023-02-05T21:01:37.746Z,1.80
2023-02-05T21:04:07.710Z,1.70
2023-02-05T21:06:37.773Z,1.70
2023-02-05T21:09:06.782Z,1.70
2023-02-05T21:11:34.773Z,1.70
2023-02-05T21:14:03.506Z,1.70
2023-02-05T21:16:31.073Z,1.70
2023-02-05T21:18:58.395Z,1.70
2023-02-05T21:21:31.838Z,1.70
2023-02-05T21:24:01.603Z,1.80
2023-02-05T21:26:32.109Z,1.80
2023-02-05T21:29:03.613Z,1.80
2023-02-05T21:31:35.741Z,1.80
2023-02-05T21:34:04.737Z,1.80
2023-02-05T21:36:33.188Z,1.80
2023-02-05T21:39:00.760Z,1.70
2023-02-05T21:41:28.379Z,1.70
2023-02-05T21:43:59.374Z,1.70
2023-02-05T21:46:31.900Z,1.70
2023-02-05T21:49:00.409Z,1.70
2023-02-05T21:51:34.525Z,1.70
2023-02-05T21:54:05.675Z,1.70
2023-02-05T21:56:36.370Z,1.70
2023-02-05T21:59:04.451Z,1.70
2023-02-05T22:01:34.693Z,1.70
2023-02-05T22:04:08.290Z,1.70
2023-02-05T22:06:36.344Z,1.70
2023-02-05T22:09:06.580Z,1.70
2023-02-05T22:11:34.122Z,1.70
2023-02-05T22:14:01.803Z,1.70
2023-02-05T22:16:32.407Z,1.70
2023-02-05T22:19:00.927Z,1.70
2023-02-05T22:21:37.160Z,1.70
2023-02-05T22:24:05.807Z,1.70
2023-02-05T22:26:36.331Z,1.70
2023-02-05T22:29:06.530Z,1.70
2023-02-05T22:31:34.502Z,1.70
2023-02-05T22:34:02.303Z,1.70
2023-02-05T22:36:31.206Z,1.70
2023-02-05T22:38:58.652Z,1.70
2023-02-05T22:41:29.332Z,1.70
2023-02-05T22:43:58.356Z,1.60
2023-02-05T22:46:28.495Z,1.60
2023-02-05T22:48:57.798Z,1.60
2023-02-05T22:51:28.804Z,1.60
2023-02-05T22:53:56.421Z,1.60
2023-02-05T22:56:24.649Z,1.60
2023-02-05T22:58:52.927Z,1.60
2023-02-05T23:01:22.308Z,1.60
2023-02-05T23:03:51.911Z,1.60
2023-02-05T23:06:25.432Z,1.60
2023-02-05T23:08:55.336Z,1.60
2023-02-05T23:11:22.951Z,1.60
2023-02-05T23:13:50.426Z,1.60
2023-02-05T23:16:30.246Z,1.60
2023-02-05T23:19:00.450Z,1.60
2023-02-05T23:21:30.085Z,1.60
2023-02-05T23:23:58.158Z,1.60
2023-02-05T23:26:27.969Z,1.60
2023-02-05T23:28:55.798Z,1.60
2023-02-05T23:31:25.360Z,1.60
2023-02-05T23:33:54.592Z,1.60
2023-02-05T23:36:22.381Z,1.60
2023-02-05T23:38:49.869Z,1.60
2023-02-05T23:41:36.301Z,1.50
2023-02-05T23:44:19.753Z,1.50
2023-02-05T23:46:48.731Z,1.60
2023-02-05T23:49:17.624Z,1.60
2023-02-05T23:51:45.003Z,1.60
2023-02-05T23:54:12.458Z,1.60
2023-02-05T23:56:40.839Z,1.60
2023-02-05T23:59:09.390Z,1.60
